Kirkland, Arizona
Current Conditions -  °F | °C
As of 1:53 PM on Monday 20 Oct 2014 (Local Time) from KPRC Reporting Station
Clear Clear  
Wind Chill: 72°   Ceiling: Unl
Heat Index: 72°   Visibility: 10mi
Dew Point: 39°   Wind: 3mph
Humidity: 30%   Direction: NA
Pressure: 30.06"   Gusts: NA
Location:  34.42°N, 112.71°W
Report Text: KPRC 202053Z VRB03KT 10SM CLR 22/04 A3006 RMK AO2 SLP118 T02220039 56017
Loading
Personal Weather Stations






























Interactive Weather Map
Tropical Storm Tracking
New forecast layout! Learn more

10-Day Weather Forecast

Advertisements
Track Severe Weather on mobile